Time;durP1;ratioP1;P1;durP2;ratioP2;P2;SDS_P1;SDS_P2;PMS_P1;PMS_P2;Temp;Humidity;BMP_temperature;BMP_pressure;BME280_temperature;BME280_humidity;BME280_pressure;Samples;Min_cycle;Max_cycle;Signal;HPM_P1;HPM_P2
2023/06/14 00:01:23;;;;;;;9.50;6.10;;;;;;;;;;7322470;19;20018;-78
2023/06/14 00:03:48;;;;;;;9.50;6.05;;;;;;;;;;7183345;19;20425;-79
2023/06/14 00:06:13;;;;;;;9.07;6.13;;;;;;;;;;7226985;19;20006;-79
2023/06/14 00:08:40;;;;;;;11.02;5.70;;;;;;;;;;7211078;19;20002;-79
2023/06/14 00:11:05;;;;;;;11.73;6.63;;;;;;;;;;7220658;19;20014;-80
2023/06/14 00:13:30;;;;;;;9.88;6.32;;;;;;;;;;7215293;19;20575;-80
2023/06/14 00:15:55;;;;;;;9.32;6.47;;;;;;;;;;7228958;19;20014;-79
2023/06/14 00:18:23;;;;;;;10.60;6.45;;;;;;;;;;7217929;19;20430;-80
2023/06/14 00:20:49;;;;;;;11.65;6.68;;;;;;;;;;7227327;19;20384;-79
2023/06/14 00:23:14;;;;;;;10.18;6.20;;;;;;;;;;7229824;19;20980;-79
2023/06/14 00:25:40;;;;;;;8.52;6.38;;;;;;;;;;7218814;19;20550;-79
2023/06/14 00:28:05;;;;;;;8.37;6.07;;;;;;;;;;7229615;19;20259;-79
2023/06/14 00:30:30;;;;;;;10.20;6.67;;;;;;;;;;7219737;19;20671;-79
2023/06/14 00:32:55;;;;;;;10.85;6.40;;;;;;;;;;7244343;19;20267;-80
2023/06/14 00:35:20;;;;;;;11.75;6.95;;;;;;;;;;7219354;19;20488;-80
2023/06/14 00:37:46;;;;;;;8.70;5.93;;;;;;;;;;7221175;19;20002;-80
2023/06/14 00:40:11;;;;;;;9.33;6.40;;;;;;;;;;7216163;19;21092;-80
2023/06/14 00:42:36;;;;;;;10.52;6.00;;;;;;;;;;7229138;19;20685;-79
2023/06/14 00:45:02;;;;;;;11.15;6.28;;;;;;;;;;7219234;19;20642;-79
2023/06/14 00:47:27;;;;;;;11.45;6.30;;;;;;;;;;7218107;19;20295;-79
2023/06/14 00:49:53;;;;;;;12.38;6.53;;;;;;;;;;7224355;19;20011;-78
2023/06/14 00:52:18;;;;;;;10.35;6.53;;;;;;;;;;7217534;19;20242;-78
2023/06/14 00:54:44;;;;;;;10.60;6.60;;;;;;;;;;7225787;19;20842;-78
2023/06/14 00:57:10;;;;;;;8.77;6.18;;;;;;;;;;7227365;19;20549;-78
2023/06/14 00:59:38;;;;;;;9.77;6.22;;;;;;;;;;7184635;19;20110;-79
2023/06/14 01:02:03;;;;;;;9.52;6.68;;;;;;;;;;7197537;19;20701;-78
2023/06/14 01:04:28;;;;;;;9.77;6.07;;;;;;;;;;7147545;19;21368;-79
2023/06/14 01:07:09;;;;;;;10.77;6.67;;;;;;;;;;7143212;19;20540;-78
2023/06/14 01:09:41;;;;;;;13.45;6.22;;;;;;;;;;7150225;19;20026;-79
2023/06/14 01:12:20;;;;;;;9.73;6.75;;;;;;;;;;7159845;19;20014;-79
2023/06/14 01:14:47;;;;;;;9.32;6.35;;;;;;;;;;7133516;19;20439;-79
2023/06/14 01:17:16;;;;;;;9.32;6.70;;;;;;;;;;7171343;19;20021;-78
2023/06/14 01:19:42;;;;;;;11.88;6.90;;;;;;;;;;7141933;19;20494;-79
2023/06/14 01:22:07;;;;;;;11.35;6.43;;;;;;;;;;7146144;19;20590;-78
2023/06/14 01:24:34;;;;;;;9.07;6.25;;;;;;;;;;7129947;19;20066;-79
2023/06/14 01:27:00;;;;;;;10.32;6.93;;;;;;;;;;7173333;19;20025;-79
2023/06/14 01:29:27;;;;;;;9.85;6.75;;;;;;;;;;7119934;19;23310;-79
2023/06/14 01:31:53;;;;;;;9.50;6.10;;;;;;;;;;7136548;19;20100;-79
2023/06/14 01:34:18;;;;;;;8.80;6.55;;;;;;;;;;7133504;19;20814;-79
2023/06/14 01:36:44;;;;;;;10.18;6.28;;;;;;;;;;7145484;19;20037;-79
2023/06/14 01:39:11;;;;;;;8.93;6.07;;;;;;;;;;7138248;19;20438;-80
2023/06/14 01:41:36;;;;;;;11.13;6.85;;;;;;;;;;7078678;19;20485;-79
2023/06/14 01:44:02;;;;;;;9.65;6.40;;;;;;;;;;7148138;19;20510;-79
2023/06/14 01:46:27;;;;;;;10.30;6.75;;;;;;;;;;7130580;19;22975;-80
2023/06/14 01:48:53;;;;;;;9.48;6.88;;;;;;;;;;7149810;19;20018;-78
2023/06/14 01:51:18;;;;;;;12.30;6.75;;;;;;;;;;7127403;19;21970;-79
2023/06/14 01:53:43;;;;;;;10.05;6.03;;;;;;;;;;7134997;19;20438;-78
2023/06/14 01:56:08;;;;;;;9.60;6.75;;;;;;;;;;7132278;19;20029;-79
2023/06/14 01:58:35;;;;;;;10.93;7.15;;;;;;;;;;7148912;19;22290;-79
2023/06/14 02:01:00;;;;;;;10.93;6.60;;;;;;;;;;7140764;19;20018;-79
2023/06/14 02:03:25;;;;;;;12.63;6.30;;;;;;;;;;7165692;19;20049;-79
2023/06/14 02:05:51;;;;;;;11.00;7.15;;;;;;;;;;7179708;19;20618;-79
2023/06/14 02:08:16;;;;;;;11.47;6.23;;;;;;;;;;7167338;19;20650;-78
2023/06/14 02:10:41;;;;;;;8.43;6.05;;;;;;;;;;7174011;19;20286;-77
2023/06/14 02:13:06;;;;;;;12.87;7.17;;;;;;;;;;7170056;19;20014;-79
2023/06/14 02:15:33;;;;;;;10.75;6.45;;;;;;;;;;7165700;19;20954;-79
2023/06/14 02:18:00;;;;;;;9.57;6.60;;;;;;;;;;7185053;19;20730;-78
2023/06/14 02:20:25;;;;;;;11.85;6.68;;;;;;;;;;7176695;19;20013;-78
2023/06/14 02:22:50;;;;;;;11.85;6.68;;;;;;;;;;7166076;19;21257;-77
2023/06/14 02:25:15;;;;;;;12.43;6.70;;;;;;;;;;7161257;19;20018;-79
2023/06/14 02:27:41;;;;;;;9.18;6.38;;;;;;;;;;7173220;19;21975;-78
2023/06/14 02:30:07;;;;;;;9.73;6.82;;;;;;;;;;7175054;19;20288;-79
2023/06/14 02:32:34;;;;;;;11.38;6.70;;;;;;;;;;7161671;19;20463;-78
2023/06/14 02:34:59;;;;;;;11.05;7.28;;;;;;;;;;7164499;19;20583;-79
2023/06/14 02:37:24;;;;;;;15.20;7.50;;;;;;;;;;7173077;19;20010;-79
2023/06/14 02:39:49;;;;;;;11.80;7.30;;;;;;;;;;7158628;19;21760;-78
2023/06/14 02:42:14;;;;;;;11.97;6.90;;;;;;;;;;7170751;19;20675;-78
2023/06/14 02:44:40;;;;;;;9.50;6.77;;;;;;;;;;7162347;19;22813;-79
2023/06/14 02:47:05;;;;;;;10.82;6.97;;;;;;;;;;7167016;19;22185;-78
2023/06/14 02:49:30;;;;;;;10.27;6.82;;;;;;;;;;7165485;19;21119;-78
2023/06/14 02:51:55;;;;;;;10.40;7.10;;;;;;;;;;7153272;19;20022;-79
2023/06/14 02:54:21;;;;;;;10.33;6.80;;;;;;;;;;7162415;19;20581;-78
2023/06/14 02:56:46;;;;;;;11.30;6.90;;;;;;;;;;7164649;19;20273;-78
2023/06/14 02:59:13;;;;;;;8.90;6.40;;;;;;;;;;7160954;19;20270;-78
2023/06/14 03:01:38;;;;;;;9.43;6.43;;;;;;;;;;7273731;19;20800;-78
2023/06/14 03:04:04;;;;;;;11.02;7.85;;;;;;;;;;7307150;19;20011;-76
2023/06/14 03:06:30;;;;;;;10.68;6.70;;;;;;;;;;7282139;19;20493;-77
2023/06/14 03:08:56;;;;;;;13.57;6.93;;;;;;;;;;7301618;19;20051;-78
2023/06/14 03:11:22;;;;;;;12.00;7.43;;;;;;;;;;7308982;19;20030;-77
2023/06/14 03:13:47;;;;;;;9.88;7.13;;;;;;;;;;7303390;19;20746;-79
2023/06/14 03:16:12;;;;;;;11.50;6.53;;;;;;;;;;7303864;19;20034;-77
2023/06/14 03:18:38;;;;;;;10.27;7.53;;;;;;;;;;7304760;19;20935;-77
2023/06/14 03:21:03;;;;;;;10.60;7.00;;;;;;;;;;7304149;19;20310;-76
2023/06/14 03:23:28;;;;;;;11.18;6.95;;;;;;;;;;7316370;19;20003;-78
2023/06/14 03:25:54;;;;;;;10.60;7.03;;;;;;;;;;7303059;19;20007;-76
2023/06/14 03:28:19;;;;;;;11.65;6.88;;;;;;;;;;7317104;19;20768;-78
2023/06/14 03:30:45;;;;;;;11.55;7.00;;;;;;;;;;7301497;19;20002;-78
2023/06/14 03:33:10;;;;;;;10.98;6.85;;;;;;;;;;7314180;19;20029;-77
2023/06/14 03:35:35;;;;;;;9.43;7.10;;;;;;;;;;7315651;19;22006;-78
2023/06/14 03:38:02;;;;;;;12.50;7.43;;;;;;;;;;7323196;19;20756;-77
2023/06/14 03:40:27;;;;;;;12.77;7.60;;;;;;;;;;7309121;19;20352;-77
2023/06/14 03:42:53;;;;;;;13.07;7.15;;;;;;;;;;7307371;19;20031;-76
2023/06/14 03:45:18;;;;;;;11.85;7.25;;;;;;;;;;7305357;19;20450;-78
2023/06/14 03:47:43;;;;;;;9.45;6.53;;;;;;;;;;7319926;19;22189;-77
2023/06/14 03:50:09;;;;;;;10.77;7.03;;;;;;;;;;7321623;19;20018;-77
2023/06/14 03:52:34;;;;;;;11.07;7.10;;;;;;;;;;7318702;19;20439;-77
2023/06/14 03:55:00;;;;;;;11.90;7.03;;;;;;;;;;7312121;19;20293;-78
2023/06/14 03:57:25;;;;;;;11.13;7.15;;;;;;;;;;7316446;19;20337;-77
2023/06/14 03:59:50;;;;;;;11.88;7.25;;;;;;;;;;7299993;19;20632;-79
2023/06/14 04:02:16;;;;;;;11.35;7.15;;;;;;;;;;7318631;19;20043;-77
2023/06/14 04:04:48;;;;;;;11.88;7.53;;;;;;;;;;7304474;19;20014;-77
2023/06/14 04:07:14;;;;;;;11.07;7.47;;;;;;;;;;7316101;19;20002;-77
2023/06/14 04:09:39;;;;;;;12.43;7.25;;;;;;;;;;7310114;19;20014;-77
2023/06/14 04:12:05;;;;;;;10.27;6.85;;;;;;;;;;7313624;19;20079;-76
2023/06/14 04:14:33;;;;;;;12.90;7.40;;;;;;;;;;7310176;19;20010;-78
2023/06/14 04:16:58;;;;;;;12.10;7.28;;;;;;;;;;7317753;19;20030;-77
2023/06/14 04:19:24;;;;;;;11.43;6.87;;;;;;;;;;7323881;19;20003;-77
2023/06/14 04:21:49;;;;;;;12.77;7.35;;;;;;;;;;7316569;19;20285;-77
2023/06/14 04:24:14;;;;;;;13.15;7.75;;;;;;;;;;7305574;19;20010;-77
2023/06/14 04:26:40;;;;;;;9.15;6.47;;;;;;;;;;7316235;19;20357;-77
2023/06/14 04:29:06;;;;;;;12.73;7.53;;;;;;;;;;7317869;19;20702;-78
2023/06/14 04:31:37;;;;;;;11.35;7.07;;;;;;;;;;7313736;19;20025;-79
2023/06/14 04:34:05;;;;;;;11.48;7.10;;;;;;;;;;7319022;19;20861;-78
2023/06/14 04:36:32;;;;;;;10.18;6.85;;;;;;;;;;7309613;19;20037;-78
2023/06/14 04:38:58;;;;;;;9.98;6.80;;;;;;;;;;7307158;19;20007;-78
2023/06/14 04:41:30;;;;;;;10.65;6.68;;;;;;;;;;7314393;19;20014;-79
2023/06/14 04:43:57;;;;;;;10.73;6.45;;;;;;;;;;7315018;19;20006;-78
2023/06/14 04:46:22;;;;;;;9.15;6.18;;;;;;;;;;7303567;19;20014;-79
2023/06/14 04:48:47;;;;;;;9.90;6.28;;;;;;;;;;7310341;19;20010;-79
2023/06/14 04:51:13;;;;;;;9.63;6.60;;;;;;;;;;7319070;19;21038;-78
2023/06/14 04:53:38;;;;;;;8.93;6.40;;;;;;;;;;7312335;19;20006;-78
2023/06/14 04:56:03;;;;;;;10.73;6.38;;;;;;;;;;7308144;19;20022;-78
2023/06/14 04:58:29;;;;;;;8.82;6.13;;;;;;;;;;7307739;19;20014;-78
2023/06/14 05:00:55;;;;;;;10.50;6.53;;;;;;;;;;7305283;19;20368;-79
2023/06/14 05:03:21;;;;;;;13.63;6.60;;;;;;;;;;7325869;19;22552;-78
2023/06/14 05:05:46;;;;;;;10.05;6.45;;;;;;;;;;7305849;19;20007;-79
2023/06/14 05:08:11;;;;;;;8.32;5.88;;;;;;;;;;7315600;19;20739;-80
2023/06/14 05:10:37;;;;;;;11.00;6.43;;;;;;;;;;7308576;19;20034;-78
2023/06/14 05:13:02;;;;;;;8.57;5.90;;;;;;;;;;7312795;19;20306;-78
2023/06/14 05:15:28;;;;;;;13.88;6.10;;;;;;;;;;7309672;19;20006;-78
2023/06/14 05:17:55;;;;;;;11.30;6.32;;;;;;;;;;7316502;19;20006;-78
2023/06/14 05:20:22;;;;;;;11.13;5.80;;;;;;;;;;7310210;19;20022;-78
2023/06/14 05:22:49;;;;;;;10.32;5.95;;;;;;;;;;7311165;19;20767;-78
2023/06/14 05:25:15;;;;;;;8.73;5.85;;;;;;;;;;7308266;19;20458;-78
2023/06/14 05:27:41;;;;;;;11.10;6.90;;;;;;;;;;7306280;19;20017;-79
2023/06/14 05:30:07;;;;;;;10.48;5.95;;;;;;;;;;7296872;19;20006;-79
2023/06/14 05:32:32;;;;;;;9.75;5.57;;;;;;;;;;7314893;19;20006;-78
2023/06/14 05:34:57;;;;;;;10.52;6.18;;;;;;;;;;7291663;19;20574;-78
2023/06/14 05:37:22;;;;;;;9.90;5.60;;;;;;;;;;7317735;19;20913;-79
2023/06/14 05:39:47;;;;;;;9.80;5.70;;;;;;;;;;7307053;19;20275;-79
2023/06/14 05:42:13;;;;;;;12.43;5.70;;;;;;;;;;7305588;19;20010;-79
2023/06/14 05:44:38;;;;;;;11.65;5.95;;;;;;;;;;7294918;19;20385;-78
2023/06/14 05:47:03;;;;;;;10.37;5.50;;;;;;;;;;7309115;19;20594;-78
2023/06/14 05:49:28;;;;;;;12.95;5.32;;;;;;;;;;7316109;19;20282;-79
2023/06/14 05:51:54;;;;;;;9.80;5.75;;;;;;;;;;7305459;19;20010;-79
2023/06/14 05:54:19;;;;;;;8.37;5.13;;;;;;;;;;7303830;19;21446;-79
2023/06/14 05:56:44;;;;;;;11.02;5.80;;;;;;;;;;7313755;19;20013;-78
2023/06/14 05:59:09;;;;;;;11.60;5.83;;;;;;;;;;7309225;19;20017;-79
2023/06/14 06:01:36;;;;;;;9.30;5.90;;;;;;;;;;7294974;19;20310;-78
2023/06/14 06:04:01;;;;;;;15.05;6.13;;;;;;;;;;7311910;19;20007;-79
2023/06/14 06:06:26;;;;;;;10.80;5.53;;;;;;;;;;7319342;19;20554;-79
2023/06/14 06:08:52;;;;;;;10.80;5.45;;;;;;;;;;7306213;19;20009;-80
2023/06/14 06:11:17;;;;;;;7.90;4.80;;;;;;;;;;7311445;19;20082;-79
2023/06/14 06:13:42;;;;;;;11.52;5.05;;;;;;;;;;7315386;19;20756;-79
2023/06/14 06:16:07;;;;;;;7.80;5.17;;;;;;;;;;7303490;19;20124;-78
2023/06/14 06:18:32;;;;;;;10.43;4.87;;;;;;;;;;7319353;19;20708;-79
2023/06/14 06:20:58;;;;;;;11.57;5.35;;;;;;;;;;7299998;19;20352;-78
2023/06/14 06:23:23;;;;;;;10.77;5.00;;;;;;;;;;7298630;19;20036;-79
2023/06/14 06:25:48;;;;;;;13.88;4.82;;;;;;;;;;7309589;19;20581;-79
2023/06/14 06:28:13;;;;;;;9.60;5.00;;;;;;;;;;7315776;19;20117;-78
2023/06/14 06:30:39;;;;;;;9.30;4.88;;;;;;;;;;7297494;19;20274;-78
2023/06/14 06:33:04;;;;;;;9.67;4.83;;;;;;;;;;7310486;19;22067;-81
2023/06/14 06:35:30;;;;;;;10.43;4.82;;;;;;;;;;7305464;19;20340;-79
2023/06/14 06:37:56;;;;;;;8.65;5.43;;;;;;;;;;7316394;19;20044;-78
2023/06/14 06:40:21;;;;;;;11.13;4.82;;;;;;;;;;7303677;19;20489;-78
2023/06/14 06:42:46;;;;;;;8.63;4.60;;;;;;;;;;7313006;19;20085;-78
2023/06/14 06:45:11;;;;;;;13.67;5.10;;;;;;;;;;7299565;19;20002;-78
2023/06/14 06:47:36;;;;;;;9.33;4.97;;;;;;;;;;7318830;19;20973;-78
2023/06/14 06:50:02;;;;;;;11.97;4.87;;;;;;;;;;7308075;19;20131;-78
2023/06/14 06:52:27;;;;;;;8.60;4.85;;;;;;;;;;7307436;19;20582;-78
2023/06/14 06:54:54;;;;;;;11.07;5.07;;;;;;;;;;7299577;19;20033;-79
2023/06/14 06:57:20;;;;;;;9.60;4.65;;;;;;;;;;7309008;19;20002;-79
2023/06/14 06:59:45;;;;;;;8.85;4.90;;;;;;;;;;7298796;19;20018;-79
2023/06/14 07:02:10;;;;;;;15.27;5.63;;;;;;;;;;7308906;19;20106;-79
2023/06/14 07:04:35;;;;;;;10.27;5.10;;;;;;;;;;7311686;19;20048;-82
2023/06/14 07:07:01;;;;;;;10.98;4.60;;;;;;;;;;7308804;19;20010;-79
2023/06/14 07:09:26;;;;;;;10.73;4.82;;;;;;;;;;7304503;19;20251;-79
2023/06/14 07:11:52;;;;;;;10.97;4.70;;;;;;;;;;7318495;19;20018;-77
2023/06/14 07:14:17;;;;;;;13.90;4.82;;;;;;;;;;7307988;19;20384;-79
2023/06/14 07:16:42;;;;;;;9.20;4.77;;;;;;;;;;7312020;19;20387;-78
2023/06/14 07:19:09;;;;;;;14.43;5.32;;;;;;;;;;7311474;19;20634;-79
2023/06/14 07:21:34;;;;;;;10.30;5.18;;;;;;;;;;7312688;19;20011;-79
2023/06/14 07:23:59;;;;;;;9.20;4.93;;;;;;;;;;7282581;19;20199;-79
2023/06/14 07:26:25;;;;;;;10.30;5.53;;;;;;;;;;7324954;19;20003;-79
2023/06/14 07:28:50;;;;;;;14.77;5.35;;;;;;;;;;7312565;19;20017;-78
2023/06/14 07:31:16;;;;;;;11.50;5.07;;;;;;;;;;7307191;19;21756;-78
2023/06/14 07:33:41;;;;;;;11.07;5.07;;;;;;;;;;7316889;19;20015;-78
2023/06/14 07:36:07;;;;;;;8.50;4.60;;;;;;;;;;7274469;19;20014;-79
2023/06/14 07:38:32;;;;;;;8.98;5.40;;;;;;;;;;7305744;19;20021;-80
2023/06/14 07:40:58;;;;;;;11.27;4.90;;;;;;;;;;7311449;19;21287;-79
2023/06/14 07:43:23;;;;;;;8.88;4.60;;;;;;;;;;7312475;19;20007;-81
2023/06/14 07:45:48;;;;;;;10.52;5.15;;;;;;;;;;7303815;19;20010;-79
2023/06/14 07:48:13;;;;;;;14.40;5.27;;;;;;;;;;7312066;19;20126;-79
2023/06/14 07:50:38;;;;;;;10.23;5.13;;;;;;;;;;7313030;19;20302;-79
2023/06/14 07:53:03;;;;;;;11.37;5.30;;;;;;;;;;7311555;19;20006;-79
2023/06/14 07:55:28;;;;;;;12.13;5.67;;;;;;;;;;7313749;19;20022;-78
2023/06/14 07:57:54;;;;;;;11.97;4.77;;;;;;;;;;7313608;19;20092;-79
2023/06/14 08:00:20;;;;;;;11.90;5.25;;;;;;;;;;7290863;19;20249;-79
2023/06/14 08:02:45;;;;;;;9.65;4.95;;;;;;;;;;7290769;19;20010;-79
2023/06/14 08:05:11;;;;;;;12.98;5.45;;;;;;;;;;7305618;19;20381;-79
2023/06/14 08:07:36;;;;;;;10.65;5.47;;;;;;;;;;7319337;19;20034;-80
2023/06/14 08:10:01;;;;;;;12.15;5.38;;;;;;;;;;7309173;19;20576;-80
2023/06/14 08:12:26;;;;;;;11.20;5.27;;;;;;;;;;7313809;19;20014;-80
2023/06/14 08:14:51;;;;;;;17.00;5.50;;;;;;;;;;7304119;19;20963;-81
2023/06/14 08:17:17;;;;;;;10.43;5.17;;;;;;;;;;7302165;19;20375;-80
2023/06/14 08:19:42;;;;;;;10.97;5.30;;;;;;;;;;7310338;19;20768;-79
2023/06/14 08:22:07;;;;;;;13.77;5.47;;;;;;;;;;7308262;19;20279;-79
2023/06/14 08:24:33;;;;;;;12.70;5.53;;;;;;;;;;7307254;19;20535;-79
2023/06/14 08:27:00;;;;;;;11.55;5.60;;;;;;;;;;7315640;19;20955;-80
2023/06/14 08:29:29;;;;;;;13.73;4.90;;;;;;;;;;7301181;19;20006;-80
2023/06/14 08:31:54;;;;;;;12.80;5.00;;;;;;;;;;7303909;19;20617;-78
2023/06/14 08:34:20;;;;;;;12.45;5.30;;;;;;;;;;7315410;19;20384;-79
2023/06/14 08:36:45;;;;;;;9.90;4.80;;;;;;;;;;7308981;19;19998;-79
2023/06/14 08:39:10;;;;;;;11.40;5.20;;;;;;;;;;7298372;19;21727;-80
2023/06/14 08:41:36;;;;;;;12.57;4.97;;;;;;;;;;7307847;19;20010;-81
2023/06/14 08:44:01;;;;;;;9.23;4.70;;;;;;;;;;7297229;19;20727;-80
2023/06/14 08:46:27;;;;;;;11.37;4.93;;;;;;;;;;7261699;19;20037;-80
2023/06/14 08:48:55;;;;;;;12.13;5.13;;;;;;;;;;7305480;19;20018;-78
2023/06/14 08:51:23;;;;;;;10.32;4.72;;;;;;;;;;7308867;19;20022;-80
2023/06/14 08:53:52;;;;;;;15.30;5.32;;;;;;;;;;7311307;19;20018;-78
2023/06/14 08:56:19;;;;;;;12.07;4.60;;;;;;;;;;7306889;19;20082;-80
2023/06/14 08:58:45;;;;;;;14.30;4.72;;;;;;;;;;7306680;19;20454;-79
2023/06/14 09:01:14;;;;;;;11.82;4.20;;;;;;;;;;7302051;19;20007;-80
2023/06/14 09:03:40;;;;;;;10.95;4.30;;;;;;;;;;7318092;19;20097;-79
2023/06/14 09:06:05;;;;;;;8.75;4.30;;;;;;;;;;7317957;19;20049;-79
2023/06/14 09:08:31;;;;;;;13.23;4.67;;;;;;;;;;7308741;19;20386;-81
2023/06/14 09:10:56;;;;;;;10.85;4.57;;;;;;;;;;7302716;19;20985;-80
2023/06/14 09:13:21;;;;;;;7.95;3.83;;;;;;;;;;7311918;19;20466;-79
2023/06/14 09:15:46;;;;;;;11.93;3.88;;;;;;;;;;7287660;19;20026;-80
2023/06/14 09:18:12;;;;;;;15.73;4.40;;;;;;;;;;7308935;19;20811;-78
2023/06/14 09:20:37;;;;;;;9.47;3.93;;;;;;;;;;7312598;19;20779;-78
2023/06/14 09:23:02;;;;;;;10.10;4.20;;;;;;;;;;7310496;19;20312;-81
2023/06/14 09:25:27;;;;;;;14.83;4.90;;;;;;;;;;7306162;19;20308;-80
2023/06/14 09:27:53;;;;;;;9.43;4.07;;;;;;;;;;7312478;19;20268;-78
2023/06/14 09:30:20;;;;;;;12.43;4.22;;;;;;;;;;7296627;19;20682;-78
2023/06/14 09:32:45;;;;;;;10.52;3.70;;;;;;;;;;7302694;19;20002;-80
2023/06/14 09:35:10;;;;;;;8.60;4.03;;;;;;;;;;7310248;19;20584;-81
2023/06/14 09:37:37;;;;;;;9.30;4.10;;;;;;;;;;7308623;19;20351;-80
2023/06/14 09:40:03;;;;;;;7.35;4.13;;;;;;;;;;7306379;19;20521;-81
2023/06/14 09:42:29;;;;;;;9.85;4.10;;;;;;;;;;7281990;19;20014;-78
2023/06/14 09:44:55;;;;;;;8.70;4.30;;;;;;;;;;7305970;19;20089;-78
2023/06/14 09:47:21;;;;;;;9.32;4.47;;;;;;;;;;7305564;19;20428;-79
2023/06/14 09:49:47;;;;;;;16.15;4.68;;;;;;;;;;7316933;19;20029;-80
2023/06/14 09:52:16;;;;;;;9.25;3.90;;;;;;;;;;7310079;19;20913;-78
2023/06/14 09:54:52;;;;;;;7.88;3.90;;;;;;;;;;7305521;19;21101;-80
2023/06/14 09:57:21;;;;;;;10.05;4.47;;;;;;;;;;7296568;19;20161;-80
2023/06/14 09:59:47;;;;;;;8.40;4.05;;;;;;;;;;7302562;19;20040;-79
2023/06/14 10:02:14;;;;;;;9.63;3.95;;;;;;;;;;7308826;19;20391;-79
2023/06/14 10:04:40;;;;;;;8.80;4.00;;;;;;;;;;7312841;19;20002;-80
2023/06/14 10:07:06;;;;;;;13.93;4.30;;;;;;;;;;7304443;19;20006;-79
2023/06/14 10:09:31;;;;;;;11.00;4.07;;;;;;;;;;7315497;19;20006;-77
2023/06/14 10:11:57;;;;;;;9.43;4.05;;;;;;;;;;7317993;19;19999;-79
2023/06/14 10:14:22;;;;;;;6.53;4.10;;;;;;;;;;7307384;19;20078;-79
2023/06/14 10:17:01;;;;;;;8.57;3.83;;;;;;;;;;7304883;19;20617;-78
2023/06/14 10:19:27;;;;;;;9.70;4.03;;;;;;;;;;7316128;19;20006;-79
2023/06/14 10:21:55;;;;;;;9.23;3.90;;;;;;;;;;7314423;19;20628;-78
2023/06/14 10:24:26;;;;;;;9.43;3.90;;;;;;;;;;7301164;19;20283;-79
2023/06/14 10:26:52;;;;;;;7.38;3.60;;;;;;;;;;7289405;19;20519;-79
2023/06/14 10:29:17;;;;;;;10.38;4.47;;;;;;;;;;7303758;19;20002;-82
2023/06/14 10:31:47;;;;;;;15.20;4.70;;;;;;;;;;7308132;19;20127;-79
2023/06/14 10:34:12;;;;;;;12.05;3.85;;;;;;;;;;7295090;19;20135;-77
2023/06/14 10:36:40;;;;;;;7.63;4.05;;;;;;;;;;7273351;19;20119;-79
2023/06/14 10:39:18;;;;;;;10.48;3.63;;;;;;;;;;7307755;19;20025;-79
2023/06/14 10:41:50;;;;;;;12.32;4.25;;;;;;;;;;7317018;19;20648;-79
2023/06/14 10:44:18;;;;;;;11.05;4.10;;;;;;;;;;7297573;19;20010;-82
2023/06/14 10:46:52;;;;;;;8.93;3.90;;;;;;;;;;7288637;19;21390;-79
2023/06/14 10:49:35;;;;;;;9.38;3.13;;;;;;;;;;7263165;19;20002;-78
2023/06/14 10:52:02;;;;;;;15.63;4.38;;;;;;;;;;7206632;19;21016;-79
2023/06/14 10:54:27;;;;;;;7.70;3.58;;;;;;;;;;7291338;19;20548;-78
2023/06/14 10:56:54;;;;;;;7.17;3.50;;;;;;;;;;7321202;19;20029;-78
2023/06/14 10:59:20;;;;;;;9.77;3.25;;;;;;;;;;7293643;19;21741;-83
2023/06/14 11:01:57;;;;;;;10.80;3.70;;;;;;;;;;7284102;19;20469;-80
2023/06/14 11:04:31;;;;;;;10.60;3.90;;;;;;;;;;7308021;19;20767;-79
2023/06/14 11:07:05;;;;;;;7.00;3.80;;;;;;;;;;7292846;19;20018;-79
2023/06/14 11:09:59;;;;;;;6.13;3.28;;;;;;;;;;7272256;19;20014;-78
2023/06/14 11:12:27;;;;;;;7.97;3.25;;;;;;;;;;7299476;19;20482;-79
2023/06/14 11:14:52;;;;;;;7.32;3.50;;;;;;;;;;7300314;19;20034;-79
2023/06/14 11:17:17;;;;;;;7.27;2.90;;;;;;;;;;7299630;19;20010;-79
2023/06/14 11:19:43;;;;;;;10.37;3.50;;;;;;;;;;7317589;19;20408;-79
2023/06/14 11:22:09;;;;;;;8.30;3.33;;;;;;;;;;7288617;19;20546;-79
2023/06/14 11:24:35;;;;;;;6.20;2.97;;;;;;;;;;7301906;19;20051;-79
2023/06/14 11:27:00;;;;;;;6.97;3.17;;;;;;;;;;7306968;19;20334;-78
2023/06/14 11:29:25;;;;;;;7.15;3.13;;;;;;;;;;7299675;19;20020;-79
2023/06/14 11:31:51;;;;;;;8.33;3.23;;;;;;;;;;7318013;19;20003;-79
2023/06/14 11:34:17;;;;;;;8.63;3.57;;;;;;;;;;7296752;19;20007;-78
2023/06/14 11:36:42;;;;;;;14.38;3.40;;;;;;;;;;7299049;19;20395;-84
2023/06/14 11:39:08;;;;;;;7.63;2.78;;;;;;;;;;7283245;19;20047;-77
2023/06/14 11:41:37;;;;;;;10.13;3.13;;;;;;;;;;7299025;19;20149;-81
2023/06/14 11:44:03;;;;;;;6.10;2.65;;;;;;;;;;7299493;19;20018;-78
2023/06/14 11:46:28;;;;;;;7.43;2.92;;;;;;;;;;7301900;19;20052;-78
2023/06/14 11:48:53;;;;;;;8.17;2.70;;;;;;;;;;7265833;19;20358;-79
2023/06/14 11:51:18;;;;;;;7.40;3.30;;;;;;;;;;7266742;19;20006;-80
2023/06/14 11:53:44;;;;;;;7.20;2.83;;;;;;;;;;7262170;19;20022;-78
2023/06/14 11:56:09;;;;;;;6.15;2.88;;;;;;;;;;7294037;19;20010;-80
2023/06/14 11:58:35;;;;;;;7.72;2.70;;;;;;;;;;7312478;19;20582;-80
2023/06/14 12:01:00;;;;;;;7.80;2.70;;;;;;;;;;7309579;19;20776;-78
2023/06/14 12:03:27;;;;;;;7.68;3.10;;;;;;;;;;7298768;19;20014;-78
2023/06/14 12:06:04;;;;;;;7.95;3.00;;;;;;;;;;7317718;19;20009;-79
2023/06/14 12:08:49;;;;;;;8.82;2.95;;;;;;;;;;7302495;19;20741;-84
2023/06/14 12:11:15;;;;;;;8.30;2.83;;;;;;;;;;7303974;19;20038;-78
2023/06/14 12:13:40;;;;;;;6.75;2.85;;;;;;;;;;7317849;19;21197;-79
2023/06/14 12:16:12;;;;;;;9.32;3.00;;;;;;;;;;7303993;19;20286;-81
2023/06/14 12:18:39;;;;;;;5.82;2.42;;;;;;;;;;7298857;19;20011;-80
2023/06/14 12:21:06;;;;;;;9.77;3.00;;;;;;;;;;7293367;19;20435;-81
2023/06/14 12:23:43;;;;;;;6.43;2.70;;;;;;;;;;7319596;19;21003;-79
2023/06/14 12:26:09;;;;;;;7.10;2.35;;;;;;;;;;7305510;19;20615;-80
2023/06/14 12:28:34;;;;;;;8.00;2.78;;;;;;;;;;7310653;19;20713;-80
2023/06/14 12:30:59;;;;;;;8.88;2.78;;;;;;;;;;7295714;19;20018;-79
2023/06/14 12:33:25;;;;;;;28.30;4.00;;;;;;;;;;7309244;19;20326;-78
2023/06/14 12:35:50;;;;;;;5.65;2.53;;;;;;;;;;7252401;19;20275;-79
2023/06/14 12:38:16;;;;;;;6.90;3.00;;;;;;;;;;7303212;19;20338;-79
2023/06/14 12:40:42;;;;;;;6.50;2.50;;;;;;;;;;7308059;19;20403;-79
2023/06/14 12:43:07;;;;;;;7.75;2.45;;;;;;;;;;7313971;19;20006;-79
2023/06/14 12:45:32;;;;;;;5.30;2.47;;;;;;;;;;7284123;19;20030;-80
2023/06/14 12:47:57;;;;;;;5.05;2.50;;;;;;;;;;7302908;19;20414;-79
2023/06/14 12:50:22;;;;;;;7.90;2.75;;;;;;;;;;7294083;19;20002;-79
2023/06/14 12:52:48;;;;;;;6.20;2.27;;;;;;;;;;7297802;19;20031;-78
2023/06/14 12:55:14;;;;;;;9.60;2.27;;;;;;;;;;7308849;19;20007;-79
2023/06/14 12:57:39;;;;;;;5.80;2.53;;;;;;;;;;7302365;19;20002;-78
2023/06/14 13:00:06;;;;;;;6.90;3.20;;;;;;;;;;7308758;19;20620;-78
2023/06/14 13:02:32;;;;;;;6.85;2.58;;;;;;;;;;7314375;19;20014;-78
2023/06/14 13:04:58;;;;;;;7.70;2.33;;;;;;;;;;7309425;19;20634;-80
2023/06/14 13:07:24;;;;;;;5.60;2.45;;;;;;;;;;7302313;19;20028;-79
2023/06/14 13:09:49;;;;;;;5.97;2.30;;;;;;;;;;7315544;19;20006;-80
2023/06/14 13:12:14;;;;;;;6.93;2.00;;;;;;;;;;7309241;19;20007;-79
2023/06/14 13:14:43;;;;;;;6.47;2.33;;;;;;;;;;7294345;19;20378;-80
2023/06/14 13:17:08;;;;;;;5.88;2.50;;;;;;;;;;7305746;19;20877;-77
2023/06/14 13:19:33;;;;;;;8.73;2.70;;;;;;;;;;7310059;19;20357;-80
2023/06/14 13:21:59;;;;;;;11.50;2.80;;;;;;;;;;7286360;19;20375;-79
2023/06/14 13:24:24;;;;;;;5.67;2.40;;;;;;;;;;7301809;19;20605;-80
2023/06/14 13:26:49;;;;;;;4.60;2.22;;;;;;;;;;7312856;19;20283;-78
2023/06/14 13:29:14;;;;;;;7.05;2.38;;;;;;;;;;7312114;19;20003;-78
2023/06/14 13:31:40;;;;;;;4.80;2.50;;;;;;;;;;7308836;19;20036;-80
2023/06/14 13:34:05;;;;;;;6.97;2.33;;;;;;;;;;7317997;19;20029;-79
2023/06/14 13:36:30;;;;;;;5.60;2.28;;;;;;;;;;7306507;19;20010;-80
2023/06/14 13:38:56;;;;;;;6.07;2.10;;;;;;;;;;7309147;19;20002;-79
2023/06/14 13:41:21;;;;;;;6.55;2.30;;;;;;;;;;7294632;19;20104;-78
2023/06/14 13:43:46;;;;;;;6.37;2.33;;;;;;;;;;7305911;19;22839;-79
2023/06/14 13:46:11;;;;;;;5.33;2.47;;;;;;;;;;7267399;19;20329;-80
2023/06/14 13:48:36;;;;;;;4.57;2.20;;;;;;;;;;7305280;19;20622;-80
2023/06/14 13:51:03;;;;;;;5.60;2.30;;;;;;;;;;7293438;19;20006;-78
2023/06/14 13:53:29;;;;;;;6.80;2.28;;;;;;;;;;7310503;19;20165;-78
2023/06/14 13:55:54;;;;;;;9.97;2.97;;;;;;;;;;7307652;19;20010;-79
2023/06/14 13:58:19;;;;;;;5.50;2.17;;;;;;;;;;7306367;19;20062;-78
2023/06/14 14:00:44;;;;;;;4.90;2.10;;;;;;;;;;7310547;19;20284;-80
2023/06/14 14:03:10;;;;;;;7.35;2.22;;;;;;;;;;7317346;19;20007;-79
2023/06/14 14:05:35;;;;;;;6.03;2.42;;;;;;;;;;7320152;19;20007;-79
2023/06/14 14:08:00;;;;;;;5.10;2.20;;;;;;;;;;7310669;19;20017;-80
2023/06/14 14:10:25;;;;;;;5.15;2.10;;;;;;;;;;7313539;19;20006;-79
2023/06/14 14:12:51;;;;;;;4.70;2.20;;;;;;;;;;7317995;19;20007;-78
2023/06/14 14:15:16;;;;;;;7.18;2.63;;;;;;;;;;7293733;19;21046;-81
2023/06/14 14:17:41;;;;;;;5.18;2.22;;;;;;;;;;7322235;19;20098;-78
2023/06/14 14:20:07;;;;;;;5.17;2.13;;;;;;;;;;7321483;19;20452;-80
2023/06/14 14:22:32;;;;;;;6.13;2.20;;;;;;;;;;7314857;19;20308;-80
2023/06/14 14:24:57;;;;;;;5.10;2.30;;;;;;;;;;7305768;19;20010;-79
2023/06/14 14:27:22;;;;;;;5.50;2.33;;;;;;;;;;7320966;19;20777;-79
2023/06/14 14:29:47;;;;;;;6.90;2.30;;;;;;;;;;7312643;19;20002;-80